Blair, NE

7:09 AM CST on December 16, 2017 (GMT -0600)
Blair Municipal

Weather History for KBTA - December, 2012

Change the Weather History Date:

Thursday, December 6, 2012

  Actual Average (KOMA) Record (KOMA)
Temperature  
Mean Temperature 44 °F -  
Max Temperature 50 °F 35 °F 72 °F (1939)
Min Temperature 39 °F 18 °F -11 °F (1882)
Degree Days  
Heating Degree Days 20    
Moisture  
Dew Point 29 °F    
Average Humidity 50    
Maximum Humidity 63    
Minimum Humidity 40    
Precipitation  
Precipitation 0.00 in - - ()
Sea Level Pressure  
Sea Level Pressure 29.91 in    
Wind  
Wind Speed 15 mph (NW)    
Max Wind Speed 24 mph    
Max Gust Speed 32 mph    
Visibility 10 miles    
Events Rain    
Averages and records for this station are not official NWS values.
T = Trace of Precipitation, MM = Missing Value Source: NWS Daily Summary

Daily Weather History Graph

Daily Weather History Graph

Search for Another Location

Airport or City:

Trip Planner

Search our weather history database for the weather conditions in past years. The results will help you decide how hot, cold, wet, or windy it might be!

Date:

Astronomy

Dec. 06, 2012 Rise Set
Actual Time 7:36 AM CST 4:54 PM CST
Civil Twilight 7:05 AM CST 5:25 PM CST
Nautical Twilight 6:30 AM CST 6:00 PM CST
Astronomical Twilight 5:57 AM CST 6:33 PM CST
Moon No Moon Rise 12:25 PM CST (12/6)
Length of Visible Light 10h 20m
Length of Day
9h 18m
Waning Gibbous, 49% of the Moon is Illuminated
Dec 6
Waning Gibbous
Dec 13
New
Dec 19
First Quarter
Dec 28
Full
Jan 4
Last Quarter

Hourly Weather History & Observations

Time (CST) Temp. Windchill Dew Point Humidity Pressure Visibility Wind Dir Wind Speed Gust Speed Precip Events Conditions
12:15 AM 50.0 °F - 26.6 °F 40% 29.86 in 10.0 mi South 23.0 mph 31.1 mph N/A   Clear
12:35 AM 50.0 °F - 26.4 °F 40% 29.86 in 10.0 mi South 24.2 mph 32.2 mph N/A   Clear
12:55 AM 50.0 °F - 26.4 °F 40% 29.86 in 10.0 mi South 23.0 mph 31.1 mph N/A   Clear
1:15 AM 50.0 °F - 26.2 °F 40% 29.85 in 10.0 mi South 23.0 mph 29.9 mph N/A   Clear
1:35 AM 50.0 °F - 26.2 °F 40% 29.85 in 10.0 mi South 23.0 mph 28.8 mph N/A   Clear
1:55 AM 50.0 °F - 26.4 °F 40% 29.84 in 10.0 mi South 20.7 mph - N/A   Clear
2:15 AM 49.8 °F - 26.4 °F 40% 29.84 in 10.0 mi South 21.9 mph 29.9 mph N/A   Clear
2:35 AM 49.5 °F - 26.2 °F 40% 29.85 in 10.0 mi South 20.7 mph 27.6 mph N/A   Clear
2:55 AM 49.5 °F - 26.4 °F 41% 29.85 in 10.0 mi South 19.6 mph - N/A   Clear
3:15 AM 49.1 °F - 26.6 °F 42% 29.84 in 10.0 mi South 17.3 mph 25.3 mph N/A   Clear
3:35 AM 49.1 °F - 27.0 °F 42% 29.83 in 10.0 mi South 19.6 mph - N/A   Clear
3:55 AM 48.7 °F - 27.1 °F 43% 29.84 in 10.0 mi South 16.1 mph - N/A   Clear
4:15 AM 48.6 °F - 27.1 °F 43% 29.84 in 10.0 mi South 13.8 mph - N/A   Scattered Clouds
4:35 AM 48.2 °F - 27.3 °F 44% 29.84 in 10.0 mi South 11.5 mph 19.6 mph N/A   Scattered Clouds
4:55 AM 48.4 °F - 27.5 °F 44% 29.85 in 10.0 mi SSW 12.7 mph - N/A   Clear
5:15 AM 48.4 °F - 27.5 °F 44% 29.85 in 10.0 mi South 10.4 mph - N/A   Clear
5:35 AM 47.7 °F - 27.9 °F 46% 29.85 in 10.0 mi South 10.4 mph - N/A   Scattered Clouds
5:55 AM 47.1 °F - 28.4 °F 48% 29.86 in 10.0 mi SSW 9.2 mph - N/A   Scattered Clouds
6:15 AM 46.8 °F - 28.4 °F 49% 29.86 in 10.0 mi SSW 8.1 mph - N/A   Mostly Cloudy
6:35 AM 45.5 °F 41.3 °F 28.2 °F 51% 29.87 in 10.0 mi SSW 8.1 mph - N/A   Scattered Clouds
6:55 AM 44.8 °F 41.0 °F 28.2 °F 52% 29.87 in 10.0 mi SSW 6.9 mph - N/A   Clear
7:15 AM 44.8 °F 41.0 °F 28.0 °F 52% 29.88 in 10.0 mi SSW 6.9 mph - N/A   Scattered Clouds
7:35 AM 45.0 °F 41.2 °F 28.4 °F 52% 29.88 in 10.0 mi South 6.9 mph - N/A   Mostly Cloudy
7:55 AM 45.0 °F 41.8 °F 28.8 °F 53% 29.88 in 10.0 mi SSW 5.8 mph - N/A   Overcast
8:15 AM 45.5 °F 43.2 °F 28.9 °F 52% 29.88 in 10.0 mi SW 4.6 mph - N/A   Overcast
8:35 AM 45.9 °F 42.9 °F 29.1 °F 52% 29.90 in 10.0 mi SW 5.8 mph - N/A   Overcast
8:55 AM 46.4 °F 44.3 °F 28.8 °F 50% 29.90 in 10.0 mi SW 4.6 mph - N/A   Mostly Cloudy
9:15 AM 46.4 °F 45.2 °F 29.3 °F 51% 29.90 in 10.0 mi WSW 3.5 mph - N/A   Overcast
9:35 AM 47.3 °F - 28.8 °F 49% 29.91 in 10.0 mi West 3.5 mph - N/A   Overcast
9:55 AM 48.2 °F - 28.4 °F 46% 29.91 in 10.0 mi WNW 6.9 mph - N/A   Overcast
10:15 AM 48.4 °F - 31.6 °F 52% 29.91 in 10.0 mi NNW 12.7 mph - N/A   Overcast
10:35 AM 48.6 °F - 32.9 °F 55% 29.93 in 10.0 mi NNW 13.8 mph - N/A   Overcast
10:55 AM 48.4 °F - 33.1 °F 56% 29.93 in 10.0 mi North 17.3 mph - N/A   Overcast
11:15 AM 48.2 °F - 32.0 °F 54% 29.92 in 10.0 mi NNW 20.7 mph 25.3 mph N/A   Overcast
11:35 AM 48.2 °F - 32.0 °F 54% 29.92 in 10.0 mi NNW 11.5 mph - N/A   Overcast
11:55 AM 48.2 °F - 31.1 °F 52% 29.92 in 10.0 mi North 15.0 mph 19.6 mph N/A   Overcast
12:15 PM 48.2 °F - 31.3 °F 52% 29.92 in 10.0 mi North 13.8 mph 23.0 mph N/A   Overcast
12:35 PM 48.2 °F - 30.6 °F 51% 29.91 in 10.0 mi NNW 16.1 mph 21.9 mph N/A   Overcast
12:55 PM 47.8 °F - 30.0 °F 50% 29.90 in 10.0 mi North 23.0 mph 26.5 mph N/A Rain Light Rain
1:15 PM 48.2 °F - 29.3 °F 48% 29.90 in 10.0 mi North 19.6 mph 26.5 mph N/A   Overcast
1:35 PM 48.4 °F - 29.1 °F 47% 29.91 in 10.0 mi North 16.1 mph 24.2 mph N/A   Overcast
1:55 PM 47.8 °F - 29.5 °F 49% 29.91 in 10.0 mi North 16.1 mph 23.0 mph N/A Rain Light Rain
2:15 PM 47.8 °F - 28.8 °F 48% 29.91 in 10.0 mi North 19.6 mph 26.5 mph N/A   Overcast
2:35 PM 47.7 °F - 29.1 °F 49% 29.91 in 10.0 mi North 19.6 mph 23.0 mph N/A   Overcast
2:55 PM 47.7 °F - 29.7 °F 50% 29.91 in 10.0 mi North 15.0 mph - N/A   Overcast
3:15 PM 48.2 °F - 29.1 °F 48% 29.92 in 10.0 mi North 17.3 mph 21.9 mph N/A   Overcast
3:35 PM 47.7 °F - 28.9 °F 48% 29.92 in 10.0 mi North 18.4 mph 23.0 mph N/A   Overcast
3:55 PM 47.8 °F - 29.3 °F 49% 29.93 in 10.0 mi NNW 11.5 mph - N/A   Overcast
4:15 PM 47.5 °F - 28.8 °F 48% 29.94 in 10.0 mi North 13.8 mph 23.0 mph N/A   Overcast
4:35 PM 46.9 °F - 28.9 °F 50% 29.94 in 10.0 mi North 16.1 mph 20.7 mph N/A   Mostly Cloudy
4:55 PM 46.4 °F 41.1 °F 29.3 °F 51% 29.93 in 10.0 mi North 11.5 mph - N/A   Scattered Clouds
5:15 PM 45.9 °F 40.4 °F 29.3 °F 52% 29.93 in 10.0 mi North 11.5 mph - N/A   Scattered Clouds
5:35 PM 45.5 °F 39.2 °F 28.9 °F 52% 29.93 in 10.0 mi North 13.8 mph 18.4 mph N/A   Mostly Cloudy
5:55 PM 45.1 °F 39.9 °F 29.1 °F 54% 29.93 in 10.0 mi North 10.4 mph - N/A   Overcast
6:15 PM 44.8 °F 39.4 °F 29.3 °F 55% 29.94 in 10.0 mi North 10.4 mph - N/A   Overcast
6:35 PM 44.6 °F 40.7 °F 29.3 °F 55% 29.95 in 10.0 mi North 6.9 mph - N/A   Overcast
7:15 PM 44.6 °F 38.4 °F 29.3 °F 55% 29.96 in 10.0 mi North 12.7 mph 17.3 mph N/A   Overcast
7:35 PM 44.2 °F 38.4 °F 29.1 °F 55% 29.97 in 10.0 mi North 11.5 mph 17.3 mph N/A   Overcast
7:55 PM 43.7 °F 37.3 °F 28.6 °F 55% 29.97 in 10.0 mi North 12.7 mph 19.6 mph N/A   Overcast
8:35 PM 42.4 °F 37.0 °F 27.5 °F 56% 29.98 in 10.0 mi North 9.2 mph - N/A   Mostly Cloudy
8:55 PM 42.1 °F 36.6 °F 27.5 °F 56% 29.97 in 10.0 mi North 9.2 mph - N/A   Overcast
9:15 PM 41.9 °F 37.5 °F 27.5 °F 57% 29.97 in 10.0 mi North 6.9 mph - N/A   Overcast
9:35 PM 41.4 °F 36.8 °F 27.9 °F 59% 29.98 in 10.0 mi North 6.9 mph - N/A   Overcast
9:55 PM 41.5 °F 37.8 °F 28.0 °F 59% 29.99 in 10.0 mi NNW 5.8 mph - N/A   Overcast
10:15 PM 41.9 °F 38.2 °F 28.4 °F 59% 29.99 in 10.0 mi North 5.8 mph - N/A   Overcast
10:35 PM 41.4 °F 38.4 °F 28.9 °F 61% 29.99 in 10.0 mi NNW 4.6 mph - N/A   Overcast
10:55 PM 41.0 °F 38.0 °F 28.9 °F 62% 29.99 in 10.0 mi North 4.6 mph - N/A   Overcast
11:15 PM 40.6 °F 37.5 °F 28.8 °F 63% 29.99 in 10.0 mi NW 4.6 mph - N/A   Overcast
11:35 PM 39.7 °F 36.5 °F 28.2 °F 63% 29.98 in 10.0 mi NNW 4.6 mph - N/A   Overcast
11:55 PM 39.7 °F 35.6 °F 28.0 °F 63% 29.98 in 10.0 mi NNW 5.8 mph - N/A   Overcast